createdAt,value
2022-10-06T00:00:55.902Z,4.22
2022-10-06T00:03:24.203Z,5.47
2022-10-06T00:05:52.643Z,5.10
2022-10-06T00:08:20.717Z,4.00
2022-10-06T00:10:48.749Z,4.07
2022-10-06T00:13:18.219Z,3.17
2022-10-06T00:15:46.127Z,4.47
2022-10-06T00:18:14.146Z,5.15
2022-10-06T00:20:43.543Z,4.10
2022-10-06T00:23:12.006Z,2.50
2022-10-06T00:25:39.931Z,4.53
2022-10-06T00:28:08.268Z,4.97
2022-10-06T00:30:37.524Z,5.63
2022-10-06T00:33:05.569Z,7.07
2022-10-06T00:35:35.589Z,8.43
2022-10-06T00:38:03.465Z,3.15
2022-10-06T00:40:32.826Z,4.40
2022-10-06T00:43:02.398Z,2.00
2022-10-06T00:45:34.553Z,7.53
2022-10-06T00:48:06.468Z,2.45
2022-10-06T00:50:35.017Z,3.28
2022-10-06T00:53:03.768Z,4.50
2022-10-06T00:55:32.330Z,3.33
2022-10-06T00:58:01.293Z,2.13
2022-10-06T01:00:29.695Z,11.07
2022-10-06T01:03:03.585Z,3.33
2022-10-06T01:05:37.127Z,2.75
2022-10-06T01:08:05.188Z,3.42
2022-10-06T01:10:33.070Z,4.97
2022-10-06T01:13:01.451Z,2.90
2022-10-06T01:15:30.126Z,4.78
2022-10-06T01:18:03.253Z,5.30
2022-10-06T01:20:33.348Z,3.20
2022-10-06T01:23:05.248Z,3.00
2022-10-06T01:25:35.701Z,3.97
2022-10-06T01:28:05.722Z,3.53
2022-10-06T01:30:39.931Z,4.53
2022-10-06T01:33:08.356Z,3.58
2022-10-06T01:35:36.234Z,5.75
2022-10-06T01:38:05.630Z,6.18
2022-10-06T01:40:33.579Z,4.93
2022-10-06T01:43:01.738Z,5.95
2022-10-06T01:45:29.644Z,3.90
2022-10-06T01:47:57.463Z,7.10
2022-10-06T01:50:25.476Z,4.28
2022-10-06T01:52:53.471Z,4.47
2022-10-06T01:55:22.996Z,4.90
2022-10-06T01:57:50.945Z,6.00
2022-10-06T02:00:19.546Z,6.65
2022-10-06T02:02:47.475Z,9.55
2022-10-06T02:05:15.736Z,6.15
2022-10-06T02:07:45.965Z,3.78
2022-10-06T02:10:14.008Z,5.50
2022-10-06T02:12:43.210Z,4.85
2022-10-06T02:15:12.032Z,5.97
2022-10-06T02:17:40.371Z,4.82
2022-10-06T02:20:08.660Z,5.63
2022-10-06T02:22:38.806Z,5.72
2022-10-06T02:25:07.489Z,4.55
2022-10-06T02:27:35.301Z,5.00
2022-10-06T02:30:05.928Z,5.18
2022-10-06T02:32:35.185Z,5.47
2022-10-06T02:35:03.802Z,5.70
2022-10-06T02:37:31.900Z,4.45
2022-10-06T02:40:00.003Z,6.47
2022-10-06T02:42:28.363Z,5.88
2022-10-06T02:44:59.068Z,9.75
2022-10-06T02:47:29.608Z,8.40
2022-10-06T02:49:57.481Z,5.07
2022-10-06T02:52:25.307Z,5.80
2022-10-06T02:54:53.240Z,6.72
2022-10-06T02:57:21.414Z,7.20
2022-10-06T02:59:49.578Z,9.30
2022-10-06T03:02:17.840Z,5.38
2022-10-06T03:04:47.146Z,8.93
2022-10-06T03:07:15.510Z,6.85
2022-10-06T03:09:43.933Z,11.02
2022-10-06T03:12:12.406Z,3.22
2022-10-06T03:14:40.711Z,5.40
2022-10-06T03:17:09.915Z,5.60
2022-10-06T03:19:38.520Z,7.18
2022-10-06T03:22:08.079Z,12.02
2022-10-06T03:24:36.069Z,7.15
2022-10-06T03:27:03.894Z,5.78
2022-10-06T03:29:31.982Z,5.70
2022-10-06T03:32:03.234Z,5.55
2022-10-06T03:34:31.076Z,7.82
2022-10-06T03:36:59.195Z,8.20
2022-10-06T03:39:28.645Z,9.32
2022-10-06T03:41:58.515Z,4.63
2022-10-06T03:44:26.374Z,6.53
2022-10-06T03:46:54.937Z,11.18
2022-10-06T03:49:22.859Z,7.72
2022-10-06T03:51:50.756Z,9.55
2022-10-06T03:54:18.712Z,7.65
2022-10-06T03:56:47.935Z,12.25
2022-10-06T03:59:17.480Z,5.03
2022-10-06T04:01:47.591Z,5.20
2022-10-06T04:04:15.721Z,7.80
2022-10-06T04:06:45.057Z,10.75
2022-10-06T04:09:15.937Z,10.52
2022-10-06T04:11:45.545Z,7.75
2022-10-06T04:14:17.248Z,6.15
2022-10-06T04:16:46.934Z,6.28
2022-10-06T04:19:16.420Z,6.10
2022-10-06T04:21:47.725Z,12.13
2022-10-06T04:24:17.364Z,7.75
2022-10-06T04:26:48.864Z,7.57
2022-10-06T04:40:23.014Z,3.83
2022-10-06T04:42:50.885Z,6.00
2022-10-06T04:45:20.169Z,7.80
2022-10-06T04:47:49.818Z,5.63
2022-10-06T04:50:18.369Z,2.75
2022-10-06T04:52:46.214Z,4.68
2022-10-06T04:55:14.311Z,2.40
2022-10-06T04:57:42.479Z,5.30
2022-10-06T05:00:25.523Z,2.45
2022-10-06T05:02:56.611Z,2.05
2022-10-06T05:05:24.789Z,2.75
2022-10-06T05:07:53.048Z,2.70
2022-10-06T05:10:20.833Z,1.98
2022-10-06T05:12:48.766Z,2.90
2022-10-06T05:15:17.010Z,2.53
2022-10-06T05:17:45.152Z,3.97
2022-10-06T05:20:14.459Z,3.08
2022-10-06T05:22:42.492Z,3.20
2022-10-06T05:25:11.195Z,3.72
2022-10-06T05:27:39.127Z,9.63
2022-10-06T05:30:07.831Z,1.83
2022-10-06T05:32:36.394Z,1.63
2022-10-06T05:35:04.775Z,3.42
2022-10-06T05:37:34.175Z,2.08
2022-10-06T05:40:02.268Z,2.53
2022-10-06T05:42:30.126Z,9.70
2022-10-06T05:44:58.017Z,3.50
2022-10-06T05:47:26.892Z,3.75
2022-10-06T05:49:54.691Z,4.38
2022-10-06T05:52:22.932Z,3.28
2022-10-06T05:54:53.973Z,5.80
2022-10-06T05:57:22.143Z,6.85
2022-10-06T05:59:49.982Z,10.02
2022-10-06T06:02:18.650Z,7.35
2022-10-06T06:04:49.416Z,3.10
2022-10-06T06:07:17.332Z,8.45
2022-10-06T06:09:45.392Z,6.00
2022-10-06T06:12:16.881Z,3.97
2022-10-06T06:15:02.141Z,8.50
2022-10-06T06:17:32.758Z,3.83
2022-10-06T06:20:00.798Z,4.78
2022-10-06T06:22:28.736Z,5.00
2022-10-06T06:25:00.504Z,2.33
2022-10-06T06:27:29.701Z,5.82
2022-10-06T06:29:58.348Z,2.70
2022-10-06T06:32:28.104Z,2.03
2022-10-06T06:34:56.373Z,7.47
2022-10-06T06:37:31.566Z,4.88
2022-10-06T06:39:59.936Z,5.95
2022-10-06T06:42:29.424Z,6.95
2022-10-06T06:44:57.626Z,3.60
2022-10-06T06:47:26.766Z,6.07
2022-10-06T06:49:55.317Z,3.72
2022-10-06T06:52:23.668Z,2.83
2022-10-06T06:54:51.590Z,4.22
2022-10-06T06:57:21.429Z,5.28
2022-10-06T06:59:50.847Z,4.90
2022-10-06T07:02:18.798Z,3.95
2022-10-06T07:04:47.224Z,6.13
2022-10-06T07:07:15.085Z,3.35
2022-10-06T07:09:44.062Z,4.45
2022-10-06T07:12:12.837Z,3.20
2022-10-06T07:15:01.198Z,3.67
2022-10-06T07:17:48.122Z,5.55
2022-10-06T07:20:33.862Z,7.03
2022-10-06T07:23:19.266Z,5.88
2022-10-06T07:25:47.214Z,2.42
2022-10-06T07:28:34.891Z,8.35
2022-10-06T07:31:16.132Z,2.55
2022-10-06T07:33:48.192Z,4.65
2022-10-06T07:36:17.029Z,4.03
2022-10-06T07:38:44.906Z,6.15
2022-10-06T07:41:20.764Z,6.00
2022-10-06T07:43:49.071Z,4.60
2022-10-06T07:46:19.371Z,3.90
2022-10-06T07:48:50.403Z,4.22
2022-10-06T07:51:20.237Z,5.70
2022-10-06T07:53:51.317Z,7.53
2022-10-06T07:56:20.563Z,4.95
2022-10-06T07:58:51.776Z,3.17
2022-10-06T08:01:21.432Z,3.55
2022-10-06T08:03:53.676Z,9.15
2022-10-06T08:06:23.685Z,2.53
2022-10-06T08:08:53.757Z,5.45
2022-10-06T08:11:23.329Z,7.43
2022-10-06T08:13:52.113Z,4.35
2022-10-06T08:16:28.525Z,6.03
2022-10-06T08:18:59.957Z,9.15
2022-10-06T08:21:29.936Z,7.50
2022-10-06T08:23:59.959Z,9.13
2022-10-06T08:29:11.830Z,6.60
2022-10-06T08:31:40.079Z,4.50
2022-10-06T08:34:23.911Z,10.02
2022-10-06T08:37:18.698Z,9.07
2022-10-06T08:39:41.472Z,7.15
2022-10-06T08:42:14.045Z,7.47
2022-10-06T08:44:45.580Z,7.38
2022-10-06T08:47:18.446Z,7.10
2022-10-06T08:49:50.174Z,7.78
2022-10-06T08:52:27.668Z,5.53
2022-10-06T08:55:06.734Z,5.40
2022-10-06T08:57:41.675Z,6.50
2022-10-06T09:00:12.628Z,3.33
2022-10-06T09:02:45.685Z,7.43
2022-10-06T09:05:25.371Z,5.78
2022-10-06T09:08:17.001Z,5.40
2022-10-06T09:10:54.914Z,8.23
2022-10-06T09:13:29.783Z,2.90
2022-10-06T09:16:02.059Z,7.20
2022-10-06T09:18:56.147Z,7.85
2022-10-06T09:21:32.296Z,7.00
2022-10-06T09:24:06.293Z,9.75
2022-10-06T09:26:37.388Z,6.30
2022-10-06T09:29:05.817Z,4.57
2022-10-06T09:31:39.086Z,6.50
2022-10-06T09:34:19.204Z,4.85
2022-10-06T09:37:03.436Z,7.90
2022-10-06T09:39:36.744Z,3.80
2022-10-06T09:42:12.618Z,5.22
2022-10-06T09:44:48.238Z,5.80
2022-10-06T09:47:41.993Z,5.85
2022-10-06T09:50:20.593Z,9.68
2022-10-06T09:53:16.389Z,3.45
2022-10-06T09:55:51.456Z,7.03
2022-10-06T09:58:31.646Z,6.05
2022-10-06T10:01:08.732Z,8.45
2022-10-06T10:04:15.579Z,9.13
2022-10-06T10:06:40.264Z,8.23
2022-10-06T10:09:24.644Z,6.43
2022-10-06T10:12:27.642Z,10.77
2022-10-06T10:14:59.204Z,4.22
2022-10-06T10:17:42.664Z,9.68
2022-10-06T10:20:30.088Z,9.75
2022-10-06T10:23:00.874Z,6.05
2022-10-06T10:26:02.854Z,5.05
2022-10-06T10:28:50.876Z,10.10
2022-10-06T10:31:31.314Z,7.55
2022-10-06T10:34:23.075Z,8.43
2022-10-06T10:36:55.762Z,8.35
2022-10-06T10:39:33.434Z,5.32
2022-10-06T10:42:07.447Z,9.20
2022-10-06T10:44:39.050Z,3.25
2022-10-06T10:47:16.042Z,5.70
2022-10-06T10:49:48.211Z,5.18
2022-10-06T10:52:20.773Z,5.13
2022-10-06T10:54:53.720Z,5.32
2022-10-06T10:57:29.059Z,4.07
2022-10-06T11:00:01.758Z,5.03
2022-10-06T11:02:29.971Z,6.65
2022-10-06T11:05:03.943Z,7.68
2022-10-06T11:07:52.650Z,6.70
2022-10-06T11:10:51.736Z,4.53
2022-10-06T11:13:33.503Z,6.05
2022-10-06T11:16:19.212Z,7.43
2022-10-06T11:19:15.984Z,6.22
2022-10-06T11:21:54.934Z,3.88
2022-10-06T11:24:32.792Z,5.35
2022-10-06T11:27:15.138Z,2.72
2022-10-06T11:30:02.156Z,3.38
2022-10-06T11:33:10.906Z,3.28
2022-10-06T11:35:42.598Z,6.18
2022-10-06T11:38:17.432Z,1.67
2022-10-06T11:41:01.007Z,3.05
2022-10-06T11:43:38.307Z,1.75
2022-10-06T11:46:21.596Z,1.42
2022-10-06T11:48:49.953Z,7.45
2022-10-06T11:51:36.118Z,4.38
2022-10-06T11:54:04.504Z,1.38
2022-10-06T11:56:41.275Z,3.78
2022-10-06T11:59:28.695Z,3.00
2022-10-06T12:02:02.361Z,5.45
2022-10-06T12:04:31.325Z,4.40
2022-10-06T12:07:03.116Z,3.70
2022-10-06T12:09:53.421Z,3.88
2022-10-06T12:12:45.881Z,5.65
2022-10-06T12:18:36.519Z,6.45
2022-10-06T12:21:12.855Z,4.35
2022-10-06T12:23:49.892Z,5.57
2022-10-06T12:26:28.490Z,5.45
2022-10-06T12:29:05.092Z,9.63
2022-10-06T12:31:48.591Z,6.07
2022-10-06T12:34:53.479Z,14.35
2022-10-06T12:37:35.070Z,4.82
2022-10-06T12:40:40.458Z,5.60
2022-10-06T12:43:24.862Z,8.10
2022-10-06T12:45:59.297Z,4.15
2022-10-06T12:48:34.872Z,7.75
2022-10-06T12:51:14.321Z,8.05
2022-10-06T12:53:52.247Z,12.43
2022-10-06T12:56:28.774Z,9.15
2022-10-06T12:58:56.970Z,5.93
2022-10-06T13:01:26.948Z,7.05
2022-10-06T13:03:56.073Z,8.27
2022-10-06T13:06:26.575Z,6.03
2022-10-06T13:09:14.003Z,7.43
2022-10-06T13:11:41.860Z,9.30
2022-10-06T13:14:13.910Z,12.15
2022-10-06T13:16:44.083Z,6.72
2022-10-06T13:19:18.289Z,7.95
2022-10-06T13:21:50.436Z,8.30
2022-10-06T13:24:24.758Z,10.95
2022-10-06T13:26:53.437Z,9.50
2022-10-06T13:29:25.147Z,9.63
2022-10-06T13:31:54.858Z,11.55
2022-10-06T13:34:29.056Z,9.45
2022-10-06T13:47:29.926Z,12.18
2022-10-06T13:50:02.872Z,8.98
2022-10-06T13:52:36.219Z,8.75
2022-10-06T13:55:06.428Z,8.90
2022-10-06T13:57:36.029Z,8.02
2022-10-06T14:00:08.293Z,9.70
2022-10-06T14:02:38.602Z,6.65
2022-10-06T14:05:24.248Z,8.88
2022-10-06T14:07:52.900Z,5.90
2022-10-06T14:12:59.214Z,8.20
2022-10-06T14:15:30.947Z,8.73
2022-10-06T14:18:02.475Z,5.05
2022-10-06T14:20:47.028Z,9.07
2022-10-06T14:23:44.607Z,6.72
2022-10-06T14:26:17.126Z,5.70
2022-10-06T14:28:52.841Z,5.88
2022-10-06T14:31:22.182Z,10.75
2022-10-06T14:33:53.072Z,6.63
2022-10-06T14:36:23.783Z,4.45
2022-10-06T14:38:53.319Z,5.72
2022-10-06T14:41:25.063Z,7.70
2022-10-06T14:43:54.050Z,5.78
2022-10-06T14:46:22.310Z,8.82
2022-10-06T14:48:52.899Z,8.80
2022-10-06T14:51:22.170Z,6.18
2022-10-06T14:53:54.558Z,7.13
2022-10-06T14:56:24.725Z,9.35
2022-10-06T14:58:53.186Z,12.00
2022-10-06T15:01:25.183Z,8.77
2022-10-06T15:03:55.756Z,9.32
2022-10-06T15:06:41.938Z,10.32
2022-10-06T15:09:13.443Z,8.85
2022-10-06T15:11:42.487Z,10.45
2022-10-06T15:14:10.677Z,4.40
2022-10-06T15:16:42.335Z,6.03
2022-10-06T15:19:13.336Z,3.63
2022-10-06T15:21:45.416Z,11.35
2022-10-06T15:24:17.786Z,12.50
2022-10-06T15:27:05.024Z,17.10
2022-10-06T15:29:35.884Z,6.72
2022-10-06T15:32:06.343Z,14.73
2022-10-06T15:34:38.009Z,14.45
2022-10-06T15:37:06.755Z,4.82
2022-10-06T15:39:38.085Z,11.65
2022-10-06T15:42:08.058Z,11.27
2022-10-06T15:44:36.675Z,6.13
2022-10-06T15:47:06.846Z,7.63
2022-10-06T15:49:40.496Z,7.35
2022-10-06T15:52:10.251Z,12.80
2022-10-06T15:54:39.637Z,14.63
2022-10-06T15:57:09.638Z,6.55
2022-10-06T15:59:40.391Z,11.98
2022-10-06T16:02:14.810Z,10.23
2022-10-06T16:04:57.388Z,15.05
2022-10-06T16:07:25.442Z,10.65
2022-10-06T16:09:53.478Z,13.57
2022-10-06T16:12:28.655Z,10.23
2022-10-06T16:14:56.606Z,16.40
2022-10-06T16:17:24.465Z,12.85
2022-10-06T16:19:57.318Z,17.80
2022-10-06T16:22:25.409Z,15.90
2022-10-06T16:41:40.584Z,10.48
2022-10-06T16:44:09.952Z,14.40
2022-10-06T16:47:32.568Z,13.98
2022-10-06T16:50:00.816Z,14.10
2022-10-06T16:52:54.427Z,15.98
2022-10-06T16:55:22.457Z,12.68
2022-10-06T16:57:50.529Z,9.45
2022-10-06T17:00:18.834Z,8.80
2022-10-06T17:02:46.828Z,13.63
2022-10-06T17:05:15.089Z,9.32
2022-10-06T17:07:43.307Z,8.98
2022-10-06T17:10:20.527Z,13.23
2022-10-06T17:12:49.259Z,13.85
2022-10-06T17:15:17.545Z,15.43
2022-10-06T17:17:45.610Z,16.50
2022-10-06T17:20:15.766Z,17.02
2022-10-06T17:22:44.407Z,11.35
2022-10-06T17:25:14.215Z,10.63
2022-10-06T17:27:43.968Z,6.35
2022-10-06T17:30:14.886Z,17.23
2022-10-06T17:32:47.724Z,17.10
2022-10-06T17:35:16.057Z,16.30
2022-10-06T17:37:44.033Z,10.52
2022-10-06T17:40:12.147Z,15.43
2022-10-06T17:42:41.481Z,13.55
2022-10-06T17:45:11.555Z,16.80
2022-10-06T17:47:39.737Z,15.07
2022-10-06T17:50:08.562Z,16.85
2022-10-06T17:52:39.123Z,16.58
2022-10-06T17:55:09.036Z,13.52
2022-10-06T17:57:36.896Z,16.13
2022-10-06T18:00:07.479Z,14.82
2022-10-06T18:02:36.891Z,12.48
2022-10-06T18:05:05.782Z,12.05
2022-10-06T18:07:34.351Z,18.40
2022-10-06T18:10:19.917Z,11.18
2022-10-06T18:12:47.840Z,12.63
2022-10-06T18:15:18.035Z,20.08
2022-10-06T18:17:50.973Z,13.93
2022-10-06T18:20:19.420Z,15.65
2022-10-06T18:22:48.537Z,11.43
2022-10-06T18:25:17.131Z,18.42
2022-10-06T18:27:47.595Z,13.38
2022-10-06T18:30:23.736Z,15.48
2022-10-06T18:36:17.606Z,10.00
2022-10-06T18:38:47.362Z,13.55
2022-10-06T18:41:18.045Z,15.93
2022-10-06T18:43:46.366Z,15.68
2022-10-06T18:46:33.356Z,14.00
2022-10-06T18:49:10.321Z,11.55
2022-10-06T18:51:44.584Z,12.65
2022-10-06T18:54:15.305Z,16.75
2022-10-06T18:56:47.868Z,13.00
2022-10-06T18:59:24.340Z,21.00
2022-10-06T19:01:52.971Z,21.17
2022-10-06T19:04:23.854Z,12.40
2022-10-06T19:06:54.068Z,10.73
2022-10-06T19:09:23.779Z,11.35
2022-10-06T19:11:53.267Z,17.73
2022-10-06T19:14:22.856Z,11.88
2022-10-06T19:16:54.494Z,12.60
2022-10-06T19:19:26.541Z,12.68
2022-10-06T19:21:57.408Z,13.35
2022-10-06T19:24:25.332Z,16.17
2022-10-06T19:26:55.126Z,19.90
2022-10-06T19:29:24.434Z,15.32
2022-10-06T19:31:55.626Z,17.08
2022-10-06T19:34:28.271Z,17.48
2022-10-06T19:36:58.129Z,13.60
2022-10-06T19:39:30.614Z,14.40
2022-10-06T19:42:16.100Z,13.68
2022-10-06T19:44:44.725Z,15.70
2022-10-06T19:47:15.739Z,11.45
2022-10-06T19:49:46.222Z,20.85
2022-10-06T19:52:16.771Z,15.68
2022-10-06T19:54:46.214Z,14.25
2022-10-06T19:57:14.404Z,17.42
2022-10-06T19:59:44.822Z,15.32
2022-10-06T20:02:13.302Z,19.05
2022-10-06T20:04:41.122Z,23.20
2022-10-06T20:07:10.777Z,15.98
2022-10-06T20:09:38.906Z,29.50
2022-10-06T20:12:07.088Z,14.82
2022-10-06T20:14:41.493Z,17.38
2022-10-06T20:17:15.560Z,20.60
2022-10-06T20:19:46.067Z,19.42
2022-10-06T20:22:15.810Z,15.73
2022-10-06T20:24:43.969Z,18.05
2022-10-06T20:27:12.387Z,19.02
2022-10-06T20:29:40.436Z,17.52
2022-10-06T20:32:08.316Z,23.20
2022-10-06T20:34:36.490Z,17.35
2022-10-06T20:37:06.435Z,19.13
2022-10-06T20:39:52.693Z,23.60
2022-10-06T20:42:21.888Z,21.02
2022-10-06T20:44:50.180Z,26.17
2022-10-06T20:47:18.666Z,18.67
2022-10-06T20:49:46.531Z,25.05
2022-10-06T20:52:15.180Z,28.15
2022-10-06T20:54:45.095Z,21.02
2022-10-06T20:57:13.081Z,28.08
2022-10-06T20:59:45.351Z,22.52
2022-10-06T21:02:13.541Z,22.25
2022-10-06T21:04:43.574Z,22.88
2022-10-06T21:07:11.965Z,20.95
2022-10-06T21:09:39.948Z,21.65
2022-10-06T21:12:09.307Z,24.42
2022-10-06T21:14:37.779Z,16.20
2022-10-06T21:17:06.760Z,22.77
2022-10-06T21:19:37.861Z,29.00
2022-10-06T21:22:06.560Z,29.10
2022-10-06T21:24:34.576Z,20.73
2022-10-06T21:27:03.431Z,21.73
2022-10-06T21:29:32.820Z,25.05
2022-10-06T21:32:01.251Z,20.70
2022-10-06T21:34:29.303Z,19.05
2022-10-06T21:36:57.772Z,34.58
2022-10-06T21:39:28.231Z,26.15
2022-10-06T21:41:56.771Z,22.52
2022-10-06T21:44:25.209Z,19.05
2022-10-06T21:46:56.168Z,22.42
2022-10-06T21:49:26.326Z,25.08
2022-10-06T21:51:55.844Z,28.98
2022-10-06T21:54:24.561Z,21.00
2022-10-06T21:56:52.888Z,29.35
2022-10-06T21:59:20.836Z,21.88
2022-10-06T22:01:50.630Z,24.15
2022-10-06T22:04:20.547Z,26.20
2022-10-06T22:06:50.215Z,23.85
2022-10-06T22:09:20.307Z,19.73
2022-10-06T22:11:48.686Z,33.08
2022-10-06T22:14:19.450Z,25.40
2022-10-06T22:16:48.077Z,25.63
2022-10-06T22:19:17.955Z,24.85
2022-10-06T22:21:49.543Z,25.40
2022-10-06T22:24:19.861Z,23.88
2022-10-06T22:26:48.788Z,19.65
2022-10-06T22:29:18.810Z,21.98
2022-10-06T22:31:48.425Z,32.28
2022-10-06T22:34:17.721Z,21.75
2022-10-06T22:36:47.757Z,21.95
2022-10-06T22:39:15.826Z,27.13
2022-10-06T22:41:44.128Z,21.65
2022-10-06T22:44:12.205Z,23.67
2022-10-06T22:46:40.330Z,23.55
2022-10-06T22:49:08.360Z,28.95
2022-10-06T22:51:36.866Z,21.00
2022-10-06T22:54:06.230Z,26.00
2022-10-06T22:56:35.656Z,24.83
2022-10-06T22:59:04.382Z,21.25
2022-10-06T23:01:32.466Z,26.67
2022-10-06T23:04:00.491Z,24.60
2022-10-06T23:06:29.976Z,21.45
2022-10-06T23:08:58.424Z,19.05
2022-10-06T23:11:28.088Z,25.67
2022-10-06T23:13:58.658Z,25.90
2022-10-06T23:16:26.803Z,25.10
2022-10-06T23:18:55.152Z,20.05
2022-10-06T23:21:27.908Z,29.27
2022-10-06T23:23:59.283Z,19.33
2022-10-06T23:26:29.254Z,25.55
2022-10-06T23:28:58.924Z,26.55
2022-10-06T23:31:28.196Z,33.65
2022-10-06T23:33:56.558Z,26.50
2022-10-06T23:36:24.507Z,21.38
2022-10-06T23:38:52.952Z,26.15
2022-10-06T23:41:21.383Z,28.83
2022-10-06T23:43:50.660Z,25.70
2022-10-06T23:46:18.865Z,22.38
2022-10-06T23:48:47.089Z,23.60
2022-10-06T23:51:16.865Z,31.33
2022-10-06T23:53:45.692Z,20.60
2022-10-06T23:56:14.226Z,31.00
2022-10-06T23:58:42.937Z,23.42
